createdAt,value
2022-12-14T00:01:58.386Z,16.50
2022-12-14T00:04:26.507Z,16.00
2022-12-14T00:06:54.525Z,17.20
2022-12-14T00:09:22.619Z,16.97
2022-12-14T00:11:50.696Z,16.33
2022-12-14T00:14:18.665Z,16.47
2022-12-14T00:16:46.664Z,15.83
2022-12-14T00:19:16.205Z,19.07
2022-12-14T00:21:44.177Z,15.00
2022-12-14T00:24:12.253Z,16.73
2022-12-14T00:26:40.197Z,13.83
2022-12-14T00:29:08.249Z,18.57
2022-12-14T00:31:36.469Z,17.90
2022-12-14T00:34:04.791Z,14.97
2022-12-14T00:36:36.430Z,16.27
2022-12-14T00:39:04.912Z,19.80
2022-12-14T00:41:32.879Z,19.83
2022-12-14T00:44:00.878Z,19.90
2022-12-14T00:46:28.878Z,19.10
2022-12-14T00:48:56.878Z,19.43
2022-12-14T00:51:24.802Z,15.53
2022-12-14T00:53:54.089Z,15.73
2022-12-14T00:56:22.125Z,16.07
2022-12-14T00:58:52.480Z,22.33
2022-12-14T01:01:21.771Z,16.83
2022-12-14T01:03:50.096Z,19.27
2022-12-14T01:06:20.760Z,17.20
2022-12-14T01:08:49.531Z,21.70
2022-12-14T01:11:19.607Z,20.20
2022-12-14T01:13:49.393Z,16.67
2022-12-14T01:16:18.561Z,17.53
2022-12-14T01:18:46.713Z,18.90
2022-12-14T01:21:16.266Z,18.93
2022-12-14T01:23:45.233Z,17.63
2022-12-14T01:26:13.868Z,19.37
2022-12-14T01:28:43.554Z,17.53
2022-12-14T01:31:13.373Z,18.47
2022-12-14T01:33:41.580Z,19.20
2022-12-14T01:36:11.885Z,18.13
2022-12-14T01:38:39.948Z,16.60
2022-12-14T01:41:10.010Z,20.47
2022-12-14T01:43:49.804Z,18.87
2022-12-14T01:46:22.256Z,17.87
2022-12-14T01:48:53.303Z,17.80
2022-12-14T01:51:21.344Z,14.73
2022-12-14T01:53:49.682Z,19.57
2022-12-14T01:56:18.693Z,16.70
2022-12-14T01:58:48.107Z,17.83
2022-12-14T02:01:16.828Z,17.87
2022-12-14T02:03:48.333Z,20.90
2022-12-14T02:06:20.256Z,17.60
2022-12-14T02:08:51.999Z,20.00
2022-12-14T02:11:32.541Z,18.27
2022-12-14T02:14:01.919Z,17.30
2022-12-14T02:16:30.344Z,17.97
2022-12-14T02:18:58.411Z,19.87
2022-12-14T02:21:37.163Z,18.33
2022-12-14T02:24:46.636Z,16.13
2022-12-14T02:27:36.865Z,16.23
2022-12-14T02:30:08.672Z,17.43
2022-12-14T02:33:12.204Z,14.30
2022-12-14T02:35:45.843Z,17.30
2022-12-14T02:38:22.888Z,21.70
2022-12-14T02:41:03.083Z,24.03
2022-12-14T02:43:37.783Z,17.90
2022-12-14T02:46:16.783Z,16.37
2022-12-14T02:48:51.254Z,18.60
2022-12-14T02:51:26.593Z,20.80
2022-12-14T02:54:01.565Z,20.07
2022-12-14T02:56:34.897Z,19.53
2022-12-14T02:59:04.673Z,13.70
2022-12-14T03:01:37.188Z,18.50
2022-12-14T03:04:05.679Z,17.07
2022-12-14T03:06:33.642Z,13.50
2022-12-14T03:09:07.784Z,19.07
2022-12-14T03:11:41.408Z,18.70
2022-12-14T03:14:14.509Z,18.67
2022-12-14T03:16:47.328Z,20.23
2022-12-14T03:19:20.906Z,19.53
2022-12-14T03:21:52.199Z,19.23
2022-12-14T03:24:25.754Z,19.00
2022-12-14T03:26:59.841Z,21.10
2022-12-14T03:29:30.602Z,16.63
2022-12-14T03:32:03.284Z,17.47
2022-12-14T03:34:35.309Z,21.47
2022-12-14T03:37:10.963Z,19.00
2022-12-14T03:39:41.916Z,23.70
2022-12-14T03:42:15.366Z,18.53
2022-12-14T03:44:50.144Z,17.97
2022-12-14T03:47:37.002Z,17.30
2022-12-14T03:50:11.482Z,16.40
2022-12-14T03:52:44.569Z,22.67
2022-12-14T03:55:24.039Z,16.53
2022-12-14T03:58:10.428Z,18.63
2022-12-14T04:00:46.503Z,22.33
2022-12-14T04:03:24.052Z,17.43
2022-12-14T04:06:03.177Z,15.30
2022-12-14T04:08:41.772Z,18.63
2022-12-14T04:11:31.659Z,17.30
2022-12-14T04:14:33.135Z,21.20
2022-12-14T04:17:23.934Z,21.60
2022-12-14T04:19:57.991Z,18.27
2022-12-14T04:22:31.059Z,15.07
2022-12-14T04:25:20.591Z,16.87
2022-12-14T04:27:51.935Z,21.17
2022-12-14T04:30:19.572Z,18.47
2022-12-14T04:32:51.678Z,16.13
2022-12-14T04:35:25.233Z,16.90
2022-12-14T04:37:57.145Z,15.37
2022-12-14T04:40:30.505Z,19.73
2022-12-14T04:43:02.009Z,17.27
2022-12-14T04:45:33.447Z,19.37
2022-12-14T04:48:08.800Z,19.53
2022-12-14T04:50:43.970Z,16.13
2022-12-14T04:53:14.876Z,18.13
2022-12-14T04:55:49.344Z,19.47
2022-12-14T04:58:22.184Z,20.07
2022-12-14T05:01:04.284Z,15.87
2022-12-14T05:03:35.655Z,17.80
2022-12-14T05:06:11.836Z,19.67
2022-12-14T05:09:08.158Z,19.33
2022-12-14T05:11:53.122Z,17.33
2022-12-14T05:14:29.546Z,16.87
2022-12-14T05:17:01.277Z,17.93
2022-12-14T05:19:31.495Z,18.23
2022-12-14T05:22:05.795Z,16.10
2022-12-14T05:24:33.986Z,19.00
2022-12-14T05:27:02.104Z,15.37
2022-12-14T05:29:30.181Z,15.73
2022-12-14T05:31:58.417Z,18.07
2022-12-14T05:34:26.439Z,18.03
2022-12-14T05:36:54.565Z,17.60
2022-12-14T05:39:23.961Z,20.53
2022-12-14T05:41:53.394Z,18.27
2022-12-14T05:44:21.764Z,17.20
2022-12-14T05:46:49.901Z,17.20
2022-12-14T05:49:17.917Z,18.53
2022-12-14T05:51:46.010Z,17.83
2022-12-14T05:54:14.085Z,17.67
2022-12-14T05:56:43.501Z,18.97
2022-12-14T05:59:15.476Z,16.23
2022-12-14T06:01:43.761Z,17.90
2022-12-14T06:04:12.748Z,16.77
2022-12-14T06:06:40.749Z,22.40
2022-12-14T06:09:10.037Z,19.67
2022-12-14T06:11:39.907Z,18.07
2022-12-14T06:14:10.875Z,16.10
2022-12-14T06:16:42.249Z,18.40
2022-12-14T06:19:11.108Z,16.27
2022-12-14T06:21:40.690Z,18.53
2022-12-14T06:24:11.127Z,17.47
2022-12-14T06:26:41.008Z,16.63
2022-12-14T06:29:15.501Z,18.30
2022-12-14T06:31:43.457Z,16.47
2022-12-14T06:34:11.860Z,14.43
2022-12-14T06:36:43.165Z,19.90
2022-12-14T06:39:14.075Z,16.93
2022-12-14T06:41:42.712Z,17.87
2022-12-14T06:44:15.263Z,15.30
2022-12-14T06:46:43.601Z,15.43
2022-12-14T06:49:15.222Z,16.20
2022-12-14T06:51:43.619Z,15.27
2022-12-14T06:54:12.714Z,16.07
2022-12-14T06:56:41.355Z,16.53
2022-12-14T06:59:10.232Z,20.23
2022-12-14T07:01:40.725Z,17.00
2022-12-14T07:04:09.533Z,15.70
2022-12-14T07:06:40.264Z,14.87
2022-12-14T07:09:09.706Z,20.57
2022-12-14T07:11:37.763Z,19.37
2022-12-14T07:14:07.214Z,17.93
2022-12-14T07:16:36.990Z,17.77
2022-12-14T07:19:06.555Z,19.20
2022-12-14T07:21:34.859Z,18.07
2022-12-14T07:24:03.297Z,16.80
2022-12-14T07:26:31.422Z,19.27
2022-12-14T07:29:01.205Z,18.80
2022-12-14T07:31:30.316Z,17.60
2022-12-14T07:34:00.525Z,22.27
2022-12-14T07:36:32.965Z,21.30
2022-12-14T07:39:01.021Z,15.97
2022-12-14T07:41:31.587Z,21.27
2022-12-14T07:44:01.149Z,20.80
2022-12-14T07:46:32.136Z,14.67
2022-12-14T07:49:01.814Z,20.90
2022-12-14T07:51:33.393Z,18.37
2022-12-14T07:54:02.214Z,18.67
2022-12-14T07:56:31.801Z,16.27
2022-12-14T07:59:01.610Z,17.20
2022-12-14T08:01:31.605Z,17.33
2022-12-14T08:04:01.464Z,21.80
2022-12-14T08:06:31.362Z,18.57
2022-12-14T08:09:00.734Z,18.70
2022-12-14T08:11:29.223Z,22.43
2022-12-14T08:13:57.646Z,18.00
2022-12-14T08:16:26.238Z,17.33
2022-12-14T08:18:55.197Z,15.93
2022-12-14T08:21:24.271Z,17.33
2022-12-14T08:23:54.839Z,18.53
2022-12-14T08:26:24.031Z,17.77
2022-12-14T08:28:54.764Z,18.70
2022-12-14T08:31:24.776Z,21.30
2022-12-14T08:33:53.682Z,15.90
2022-12-14T08:36:24.595Z,15.13
2022-12-14T08:38:58.232Z,16.00
2022-12-14T08:41:27.295Z,21.53
2022-12-14T08:43:57.175Z,22.63
2022-12-14T08:46:26.708Z,19.37
2022-12-14T08:48:55.456Z,18.53
2022-12-14T08:51:24.959Z,18.77
2022-12-14T08:53:53.656Z,19.63
2022-12-14T08:56:25.247Z,18.20
2022-12-14T08:58:53.735Z,16.50
2022-12-14T09:01:28.313Z,17.47
2022-12-14T09:04:05.027Z,20.60
2022-12-14T09:06:35.777Z,15.80
2022-12-14T09:09:03.969Z,18.23
2022-12-14T09:11:33.805Z,18.63
2022-12-14T09:14:01.767Z,16.47
2022-12-14T09:16:29.950Z,18.17
2022-12-14T09:18:58.061Z,17.20
2022-12-14T09:21:26.070Z,17.23
2022-12-14T09:23:59.331Z,15.30
2022-12-14T09:26:28.395Z,17.17
2022-12-14T09:28:58.924Z,19.40
2022-12-14T09:31:28.176Z,15.93
2022-12-14T09:33:56.841Z,18.37
2022-12-14T09:36:26.988Z,21.53
2022-12-14T09:38:56.719Z,19.13
2022-12-14T09:41:33.434Z,15.90
2022-12-14T09:44:18.097Z,22.83
2022-12-14T09:46:55.765Z,17.33
2022-12-14T09:49:29.373Z,16.00
2022-12-14T09:52:01.097Z,22.20
2022-12-14T09:54:33.033Z,20.30
2022-12-14T09:57:09.954Z,17.10
2022-12-14T09:59:39.374Z,17.73
2022-12-14T10:02:33.170Z,19.60
2022-12-14T10:05:34.882Z,17.07
2022-12-14T10:08:11.192Z,19.70
2022-12-14T10:10:45.987Z,17.13
2022-12-14T10:13:22.571Z,23.03
2022-12-14T10:16:00.524Z,16.73
2022-12-14T10:19:01.050Z,25.20
2022-12-14T10:21:42.463Z,19.17
2022-12-14T10:24:17.527Z,22.13
2022-12-14T10:26:49.925Z,18.03
2022-12-14T10:29:30.069Z,21.97
2022-12-14T10:32:05.997Z,18.50
2022-12-14T10:34:35.717Z,21.30
2022-12-14T10:37:13.589Z,21.93
2022-12-14T10:39:51.721Z,21.27
2022-12-14T10:42:28.151Z,16.47
2022-12-14T10:45:39.694Z,18.40
2022-12-14T10:48:14.903Z,18.33
2022-12-14T10:50:54.533Z,17.97
2022-12-14T10:53:29.018Z,18.63
2022-12-14T10:56:03.019Z,19.57
2022-12-14T10:58:31.730Z,22.93
2022-12-14T11:00:59.949Z,19.73
2022-12-14T11:03:30.078Z,17.60
2022-12-14T11:06:03.691Z,18.87
2022-12-14T11:08:48.107Z,17.03
2022-12-14T11:11:19.745Z,19.73
2022-12-14T11:13:52.905Z,17.90
2022-12-14T11:16:35.530Z,22.33
2022-12-14T11:19:15.070Z,20.73
2022-12-14T11:21:43.033Z,19.33
2022-12-14T11:24:23.231Z,22.47
2022-12-14T11:26:54.319Z,21.37
2022-12-14T11:29:30.193Z,23.03
2022-12-14T11:31:58.404Z,20.03
2022-12-14T11:34:34.495Z,21.10
2022-12-14T11:37:22.454Z,21.40
2022-12-14T11:39:52.030Z,17.57
2022-12-14T11:42:21.648Z,16.90
2022-12-14T11:44:51.478Z,23.57
2022-12-14T11:47:21.090Z,21.67
2022-12-14T11:49:54.193Z,19.13
2022-12-14T11:52:25.085Z,17.87
2022-12-14T11:55:12.162Z,23.43
2022-12-14T11:57:49.786Z,20.63
2022-12-14T12:00:28.911Z,23.23
2022-12-14T12:03:01.911Z,21.23
2022-12-14T12:05:34.020Z,20.73
2022-12-14T12:08:03.271Z,17.80
2022-12-14T12:10:40.224Z,21.53
2022-12-14T12:13:19.712Z,18.63
2022-12-14T12:15:51.655Z,23.23
2022-12-14T12:18:23.793Z,17.80
2022-12-14T12:20:58.383Z,19.97
2022-12-14T12:23:32.698Z,18.07
2022-12-14T12:26:02.343Z,16.57
2022-12-14T12:28:34.937Z,24.37
2022-12-14T12:31:11.224Z,18.93
2022-12-14T12:33:45.872Z,21.97
2022-12-14T12:36:23.788Z,22.50
2022-12-14T12:39:04.976Z,27.67
2022-12-14T12:41:47.381Z,23.33
2022-12-14T12:44:25.220Z,22.30
2022-12-14T12:49:51.435Z,26.87
2022-12-14T12:52:26.188Z,27.80
2022-12-14T12:54:59.693Z,34.23
2022-12-14T12:57:33.350Z,24.77
2022-12-14T13:00:02.036Z,28.13
2022-12-14T13:02:34.554Z,31.07
2022-12-14T13:05:22.361Z,31.60
2022-12-14T13:07:58.083Z,30.53
2022-12-14T13:10:30.211Z,31.13
2022-12-14T13:13:03.891Z,28.13
2022-12-14T13:15:35.840Z,31.70
2022-12-14T13:18:07.263Z,32.17
2022-12-14T13:20:35.945Z,27.13
2022-12-14T13:23:44.279Z,32.43
2022-12-14T13:26:08.270Z,25.27
2022-12-14T13:28:54.365Z,27.80
2022-12-14T13:31:35.876Z,31.43
2022-12-14T13:34:26.947Z,28.50
2022-12-14T13:37:15.782Z,28.97
2022-12-14T13:40:23.125Z,28.77
2022-12-14T13:42:56.723Z,29.23
2022-12-14T13:45:30.959Z,29.37
2022-12-14T13:47:59.717Z,26.93
2022-12-14T13:50:41.020Z,27.63
2022-12-14T13:53:18.372Z,29.43
2022-12-14T13:55:53.098Z,30.40
2022-12-14T13:58:26.699Z,29.23
2022-12-14T14:01:03.787Z,27.60
2022-12-14T14:03:53.280Z,27.23
2022-12-14T14:06:34.731Z,24.13
2022-12-14T14:09:55.211Z,27.43
2022-12-14T14:12:45.123Z,31.20
2022-12-14T14:15:26.566Z,26.23
2022-12-14T14:17:55.368Z,31.57
2022-12-14T14:20:37.534Z,29.73
2022-12-14T14:23:29.445Z,25.97
2022-12-14T14:26:24.654Z,26.60
2022-12-14T14:29:33.155Z,25.57
2022-12-14T14:32:02.523Z,24.73
2022-12-14T14:34:49.810Z,26.40
2022-12-14T14:37:29.680Z,25.97
2022-12-14T14:40:23.853Z,32.80
2022-12-14T14:43:05.474Z,36.20
2022-12-14T14:45:41.785Z,32.83
2022-12-14T14:48:19.671Z,33.30
2022-12-14T14:50:49.655Z,29.13
2022-12-14T14:53:29.431Z,30.97
2022-12-14T14:56:07.029Z,28.20
2022-12-14T14:58:38.115Z,26.77
2022-12-14T15:01:24.987Z,28.57
2022-12-14T15:03:57.128Z,28.03
2022-12-14T15:06:28.948Z,27.87
2022-12-14T15:09:06.293Z,28.30
2022-12-14T15:11:43.863Z,27.93
2022-12-14T15:14:27.827Z,28.77
2022-12-14T15:16:57.170Z,30.90
2022-12-14T15:19:27.930Z,27.80
2022-12-14T15:21:58.429Z,25.30
2022-12-14T15:24:27.414Z,33.90
2022-12-14T15:26:55.563Z,28.03
2022-12-14T15:29:28.338Z,34.83
2022-12-14T15:32:00.648Z,32.87
2022-12-14T15:34:29.137Z,30.57
2022-12-14T15:36:57.811Z,31.00
2022-12-14T15:39:32.576Z,29.90
2022-12-14T15:42:12.127Z,28.90
2022-12-14T15:44:43.981Z,34.97
2022-12-14T15:47:33.946Z,33.87
2022-12-14T15:50:21.708Z,35.90
2022-12-14T15:52:50.757Z,27.67
2022-12-14T15:55:32.202Z,36.83
2022-12-14T15:58:06.567Z,33.07
2022-12-14T16:00:36.077Z,33.07
2022-12-14T16:03:16.814Z,34.90
2022-12-14T16:05:45.084Z,36.10
2022-12-14T16:08:15.934Z,35.87
2022-12-14T16:10:45.238Z,39.63
2022-12-14T16:13:18.441Z,40.63
2022-12-14T16:15:46.601Z,39.17
2022-12-14T16:18:20.368Z,42.03
2022-12-14T16:20:57.841Z,44.50
2022-12-14T16:23:30.470Z,42.03
2022-12-14T16:26:01.637Z,41.53
2022-12-14T16:28:32.228Z,39.60
2022-12-14T16:31:03.827Z,44.53
2022-12-14T16:33:35.422Z,44.87
2022-12-14T16:36:06.765Z,47.53
2022-12-14T16:38:41.193Z,45.00
2022-12-14T16:41:09.730Z,47.40
2022-12-14T16:43:42.916Z,47.57
2022-12-14T16:46:17.412Z,42.67
2022-12-14T16:49:09.477Z,46.60
2022-12-14T16:54:31.084Z,39.77
2022-12-14T16:57:03.327Z,42.47
2022-12-14T16:59:43.240Z,45.13
2022-12-14T17:02:29.073Z,44.27
2022-12-14T17:05:00.874Z,51.90
2022-12-14T17:07:32.003Z,47.73
2022-12-14T17:10:00.057Z,59.67
2022-12-14T17:12:28.244Z,53.90
2022-12-14T17:14:56.273Z,48.00
2022-12-14T17:17:32.118Z,44.50
2022-12-14T17:20:02.645Z,51.73
2022-12-14T17:22:33.045Z,48.33
2022-12-14T17:25:02.444Z,43.03
2022-12-14T17:27:30.596Z,47.40
2022-12-14T17:29:58.598Z,53.83
2022-12-14T17:32:29.668Z,47.47
2022-12-14T17:34:57.782Z,46.43
2022-12-14T17:37:34.208Z,51.00
2022-12-14T17:40:05.225Z,45.57
2022-12-14T17:42:33.240Z,49.50
2022-12-14T17:45:01.842Z,43.03
2022-12-14T17:47:29.924Z,54.03
2022-12-14T17:49:59.169Z,45.03
2022-12-14T17:52:32.860Z,47.50
2022-12-14T17:55:01.127Z,50.90
2022-12-14T17:57:29.148Z,49.07
2022-12-14T18:00:11.025Z,51.17
2022-12-14T18:02:39.864Z,50.20
2022-12-14T18:05:12.950Z,45.87
2022-12-14T18:07:42.359Z,45.33
2022-12-14T18:10:14.165Z,46.70
2022-12-14T18:12:42.539Z,56.33
2022-12-14T18:15:20.569Z,47.23
2022-12-14T18:17:49.341Z,48.30
2022-12-14T18:20:20.351Z,46.37
2022-12-14T18:22:50.673Z,54.33
2022-12-14T18:25:27.778Z,45.90
2022-12-14T18:27:55.892Z,48.83
2022-12-14T18:30:23.895Z,53.10
2022-12-14T18:32:51.921Z,51.00
2022-12-14T18:35:21.259Z,50.30
2022-12-14T18:37:51.733Z,47.97
2022-12-14T18:40:22.077Z,47.73
2022-12-14T18:42:50.128Z,46.57
2022-12-14T18:45:20.765Z,44.53
2022-12-14T18:47:49.125Z,43.17
2022-12-14T18:50:18.665Z,44.63
2022-12-14T18:52:47.707Z,45.47
2022-12-14T18:55:19.223Z,48.43
2022-12-14T18:57:49.307Z,49.10
2022-12-14T19:00:20.046Z,50.43
2022-12-14T19:02:49.736Z,50.93
2022-12-14T19:05:25.591Z,54.23
2022-12-14T19:07:54.775Z,48.37
2022-12-14T19:10:26.496Z,52.43
2022-12-14T19:12:55.306Z,48.23
2022-12-14T19:15:25.431Z,52.27
2022-12-14T19:17:53.896Z,58.90
2022-12-14T19:20:23.011Z,63.00
2022-12-14T19:22:51.200Z,55.13
2022-12-14T19:25:20.418Z,55.00
2022-12-14T19:30:40.580Z,57.57
2022-12-14T19:33:08.612Z,57.20
2022-12-14T19:35:39.993Z,52.87
2022-12-14T19:38:08.375Z,49.63
2022-12-14T19:40:36.367Z,52.37
2022-12-14T19:43:05.785Z,54.90
2022-12-14T19:45:33.801Z,54.70
2022-12-14T19:48:01.825Z,55.20
2022-12-14T19:50:29.794Z,56.07
2022-12-14T19:52:57.852Z,51.80
2022-12-14T19:55:25.909Z,57.40
2022-12-14T19:57:53.945Z,57.87
2022-12-14T20:00:23.448Z,56.40
2022-12-14T20:02:51.605Z,61.27
2022-12-14T20:05:21.586Z,51.73
2022-12-14T20:07:49.591Z,54.27
2022-12-14T20:10:17.654Z,53.77
2022-12-14T20:12:45.721Z,55.43
2022-12-14T20:15:14.089Z,59.77
2022-12-14T20:17:43.509Z,63.50
2022-12-14T20:20:12.541Z,58.17
2022-12-14T20:22:40.679Z,55.67
2022-12-14T20:25:09.299Z,55.00
2022-12-14T20:27:40.612Z,54.50
2022-12-14T20:30:10.234Z,55.83
2022-12-14T20:32:40.729Z,53.33
2022-12-14T20:35:12.041Z,55.70
2022-12-14T20:37:40.559Z,57.57
2022-12-14T20:40:10.160Z,54.73
2022-12-14T20:42:38.249Z,61.07
2022-12-14T20:45:08.222Z,59.93
2022-12-14T20:47:36.508Z,66.40
2022-12-14T20:50:05.267Z,56.50
2022-12-14T20:52:34.687Z,61.17
2022-12-14T20:55:02.773Z,59.27
2022-12-14T20:57:33.056Z,52.87
2022-12-14T21:00:01.220Z,54.73
2022-12-14T21:02:29.447Z,60.00
2022-12-14T21:04:57.613Z,61.23
2022-12-14T21:07:26.540Z,60.20
2022-12-14T21:09:56.098Z,57.37
2022-12-14T21:12:24.127Z,62.37
2022-12-14T21:14:53.875Z,59.17
2022-12-14T21:17:23.402Z,58.10
2022-12-14T21:19:51.810Z,51.13
2022-12-14T21:22:21.952Z,60.80
2022-12-14T21:25:06.615Z,61.50
2022-12-14T21:27:38.982Z,58.53
2022-12-14T21:30:09.485Z,60.33
2022-12-14T21:32:38.166Z,54.20
2022-12-14T21:35:07.335Z,54.83
2022-12-14T21:37:38.170Z,71.57
2022-12-14T21:40:07.579Z,60.03
2022-12-14T21:42:43.470Z,65.17
2022-12-14T21:45:19.784Z,62.33
2022-12-14T21:47:50.287Z,59.83
2022-12-14T21:50:18.473Z,60.20
2022-12-14T21:52:46.436Z,61.87
2022-12-14T21:55:14.403Z,59.80
2022-12-14T21:58:01.382Z,65.13
2022-12-14T22:00:29.378Z,55.43
2022-12-14T22:02:57.476Z,64.73
2022-12-14T22:05:25.543Z,60.30
2022-12-14T22:07:53.549Z,69.77
2022-12-14T22:10:24.899Z,61.80
2022-12-14T22:12:54.512Z,59.13
2022-12-14T22:15:22.562Z,61.03
2022-12-14T22:17:51.705Z,58.90
2022-12-14T22:20:19.735Z,64.23
2022-12-14T22:22:47.665Z,59.43
2022-12-14T22:25:16.540Z,61.03
2022-12-14T22:27:44.613Z,66.73
2022-12-14T22:30:19.631Z,62.03
2022-12-14T22:32:47.876Z,62.53
2022-12-14T22:35:16.058Z,69.53
2022-12-14T22:37:44.049Z,61.23
2022-12-14T22:40:12.660Z,71.13
2022-12-14T22:42:40.645Z,63.53
2022-12-14T22:45:09.646Z,61.80
2022-12-14T22:47:38.995Z,65.63
2022-12-14T22:50:08.032Z,64.60
2022-12-14T22:52:36.115Z,58.87
2022-12-14T22:55:04.119Z,58.93
2022-12-14T22:57:39.040Z,54.87
2022-12-14T23:00:11.507Z,55.77
2022-12-14T23:02:45.342Z,66.20
2022-12-14T23:05:15.865Z,61.27
2022-12-14T23:07:43.869Z,61.40
2022-12-14T23:10:29.136Z,61.97
2022-12-14T23:13:14.684Z,66.40
2022-12-14T23:16:00.265Z,69.80
2022-12-14T23:18:46.782Z,58.90
2022-12-14T23:21:32.628Z,64.30
2022-12-14T23:24:18.230Z,66.20
2022-12-14T23:27:09.090Z,65.27
2022-12-14T23:29:55.220Z,64.43
2022-12-14T23:32:40.877Z,59.30
2022-12-14T23:35:27.972Z,59.57
2022-12-14T23:38:13.451Z,58.23
2022-12-14T23:40:58.902Z,62.50
2022-12-14T23:43:44.445Z,69.33
2022-12-14T23:46:29.951Z,69.00
2022-12-14T23:49:16.317Z,64.00
2022-12-14T23:52:03.407Z,70.63
2022-12-14T23:54:48.984Z,59.87
2022-12-14T23:57:34.505Z,68.57
